Coxsackie, New York
Current Conditions -  °F | °C
As of 10:54 AM on Wednesday 26 Nov 2014 (Local Time) from KPSF Reporting Station
Heavy Snow Heavy Snow  
Wind Chill: 32°   Ceiling: 500
Heat Index: 32°   Visibility: 0.25mi
Dew Point: 31°   Wind: 3mph
Humidity: 96%   Direction: 340°NNW
Pressure: 30.1"   Gusts: NA
Location:  42.35°N, 73.8°W
Report Text: KPSF 261554Z AUTO 34003KT 1/4SM +SN FG VV005 00/M01 A3010 RMK AO2 SLP198 P0012 T00001006
Loading
Personal Weather Stations






























Interactive Weather Map New forecast layout! Learn more

10-Day Weather Forecast

Advertisements
Track Severe Weather on mobile